WetterOnline ( https://www.wetteronline.de )

Wetter aktuell Marpingen

Aktuelles Wetter: Tholey (398m)

6-stündlich | Neueste Meldungen
Ortszeit Temperatur Wetter
Fr, 27.11. 7:00 -1.5° C Nebel
Fr, 27.11. 1:00 1.4° C fast wolkenlos
Do, 26.11. 19:00 1.5° C bedeckt
Do, 26.11. 13:00 2.3° C leicht bewölkt
Do, 26.11. 7:00 -1.9° C leicht bewölkt
Do, 26.11. 1:00 1.7° C leicht bewölkt
Mi, 25.11. 19:00 5.6° C bedeckt
Mi, 25.11. 13:00 7.2° C fast wolkenlos
Ortszeit Temperatur Wetter
Fr, 27.11. 9:30 -0.9° C Nebel
Fr, 27.11. 9:20 -0.9° C Nebel
Fr, 27.11. 9:10 -1.0° C leicht bewölkt
Fr, 27.11. 9:00 -1.2° C wolkig
Fr, 27.11. 8:50 -1.2° C wolkig
Fr, 27.11. 8:40 -1.2° C wolkig
Fr, 27.11. 8:30 -1.6° C Nebel
Fr, 27.11. 8:00 -1.6° C Nebel
Ortszeit Relative Feuchte Sichtweite
Fr, 27.11. 7:00 99% 100 m
Fr, 27.11. 1:00 94% 23 km
Do, 26.11. 19:00 99% 4.1 km
Do, 26.11. 13:00 94% 10 km
Do, 26.11. 7:00 98% 9 km
Do, 26.11. 1:00 98% 1.1 km
Mi, 25.11. 19:00 85% 30 km
Mi, 25.11. 13:00 76% 35 km
Ortszeit Relative Feuchte Sichtweite
Fr, 27.11. 9:30 99% 0.5 km
Fr, 27.11. 9:20 99% -
Fr, 27.11. 9:10 99% -
Fr, 27.11. 9:00 98% 5.0 km
Fr, 27.11. 8:50 98% -
Fr, 27.11. 8:40 98% -
Fr, 27.11. 8:30 98% 100 m
Fr, 27.11. 8:00 99% 100 m
Ortszeit Niederschlagsmenge Niederschlagsart
Fr, 27.11. 7:00 0.1 l/m2 in 12 Std. -
Fr, 27.11. 1:00 0.1 l/m2 in 6 Std. Regen
Do, 26.11. 19:00 0.0 l/m2 in 12 Std. -
Do, 26.11. 13:00 0.0 l/m2 in 6 Std. -
Do, 26.11. 7:00 0.0 l/m2 in 12 Std. -
Do, 26.11. 1:00 0.0 l/m2 in 6 Std. -
Mi, 25.11. 19:00 0.0 l/m2 in 12 Std. -
Mi, 25.11. 13:00 0.0 l/m2 in 6 Std. -
Ortszeit Niederschlagsmenge Niederschlagsart
Fr, 27.11. 9:30 0.0 l/m2 in 1 Std. -
Fr, 27.11. 9:20 keine Meldung -
Fr, 27.11. 9:10 keine Meldung -
Fr, 27.11. 9:00 0.0 l/m2 in 1 Std. -
Fr, 27.11. 8:50 keine Meldung -
Fr, 27.11. 8:40 keine Meldung -
Fr, 27.11. 8:30 0.0 l/m2 in 1 Std. -
Fr, 27.11. 8:00 0.0 l/m2 in 1 Std. -
Ortszeit Stärke Spitze Richtung
km/h Bft. km/h Grad Sektor
Fr, 27.11. 7:00 11 2 14 70° O
Fr, 27.11. 1:00 7 2 18 50° NO
Do, 26.11. 19:00 11 2 17 70° O
Do, 26.11. 13:00 13 3 19 90° O
Do, 26.11. 7:00 11 2 14 70° O
Do, 26.11. 1:00 9 2 13 60° NO
Mi, 25.11. 19:00 7 2 11 90° O
Mi, 25.11. 13:00 4 1 11 170° S
Ortszeit Stärke Spitze Richtung
km/h Bft. km/h Grad Sektor
Fr, 27.11. 9:30 11 2 18 70° O
Fr, 27.11. 9:20 11 2 - 70° O
Fr, 27.11. 9:10 13 3 - 60° NO
Fr, 27.11. 9:00 15 3 19 60° NO
Fr, 27.11. 8:50 15 3 - 60° NO
Fr, 27.11. 8:40 15 3 - 60° NO
Fr, 27.11. 8:30 11 2 14 70° O
Fr, 27.11. 8:00 11 2 14 70° O
Ortszeit Untergrenze Bedeckung Gattung
total tief tief mittel hoch
Fr, 27.11. 7:00 <30 m 8/8 0/8 - - -
Fr, 27.11. 1:00 1260 m 1/8 1/8 - - -
Do, 26.11. 19:00 30 m 8/8 8/8 - - -
Do, 26.11. 13:00 30 m 3/8 3/8 - - -
Do, 26.11. 7:00 <30 m 2/8 0/8 - - -
Do, 26.11. 1:00 5100 m 5/8 3/8 - - -
Mi, 25.11. 19:00 4500 m 8/8 8/8 - - -
Mi, 25.11. 13:00 9000 m 1/8 0/8 - - -
Ortszeit Bedeckungsgrad in Achtel und Wolkenuntergrenze
Fr, 27.11. 9:30 3(<30m)
Fr, 27.11. 9:20 3(<30m)
Fr, 27.11. 9:10 2(<30m)
Fr, 27.11. 9:00 6(<30m)
Fr, 27.11. 8:50 6(<30m)
Fr, 27.11. 8:40 5(<30m)
Fr, 27.11. 8:30 8(<30m)
Fr, 27.11. 8:00 7(<30m)
Ortszeit Luftdruck NN (hPa) Tendenz (hPa in 3 Std.)
Fr, 27.11. 7:00 1022 - 0,2
Fr, 27.11. 1:00 1022 - 0,1
Do, 26.11. 19:00 1022 + 0,3
Do, 26.11. 13:00 1023 - 0,5
Do, 26.11. 7:00 1024 + 0,1
Do, 26.11. 1:00 1023 + 0,6
Mi, 25.11. 19:00 1021 + 0,7
Mi, 25.11. 13:00 1020 - 0,4
Ortszeit Luftdruck NN (hPa) Tendenz (hPa in 3 Std.)
Fr, 27.11. 9:30 1022 + 0,4
Fr, 27.11. 9:20 1022 keine Meldung
Fr, 27.11. 9:10 1022 keine Meldung
Fr, 27.11. 9:00 1022 + 0,3
Fr, 27.11. 8:50 1022 keine Meldung
Fr, 27.11. 8:40 1022 keine Meldung
Fr, 27.11. 8:30 1022 + 0,3
Fr, 27.11. 8:00 1022 0,0
Ortszeit Schneehöhe (cm)
Fr, 27.11. 7:00 0
Fr, 27.11. 1:00 0
Do, 26.11. 19:00 0
Do, 26.11. 13:00 0
Do, 26.11. 7:00 0
Do, 26.11. 1:00 0
Mi, 25.11. 19:00 0
Mi, 25.11. 13:00 0
Ortszeit Schneehöhe (cm)
Fr, 27.11. 9:30 0
Fr, 27.11. 9:20 0
Fr, 27.11. 9:10 0
Fr, 27.11. 9:00 0
Fr, 27.11. 8:50 0
Fr, 27.11. 8:40 0
Fr, 27.11. 8:30 0
Fr, 27.11. 8:00 0
Link zu dieser Seite / Seite empfehlen

Das Wetter in ...